Agate Beach, Oregon
Current Conditions -  °F | °C
As of 12:35 PM on Tuesday 21 Oct 2014 (Local Time) from KONP Reporting Station
Scattered Clouds Scattered Clouds  
Wind Chill: 61°   Ceiling: Unl
Heat Index: 61°   Visibility: 7mi
Dew Point: 54°   Wind: 22mph
Humidity: 77%   Direction: 190°S
Pressure: 30.01"   Gusts: 31mph
Location:  44.6805°N, 124.021°W
Report Text: KONP 211935Z AUTO 19019G27KT 7SM SCT030 16/12 A3001 RMK AO2
Loading
Personal Weather Stations






























Interactive Weather Map
Tropical Storm Tracking
New forecast layout! Learn more

10-Day Weather Forecast

Advertisements
Track Severe Weather on mobile